Time;durP1;ratioP1;P1;durP2;ratioP2;P2;SDS_P1;SDS_P2;PMS_P1;PMS_P2;Temp;Humidity;BMP_temperature;BMP_pressure;BME280_temperature;BME280_humidity;BME280_pressure;Samples;Min_cycle;Max_cycle;Signal;HPM_P1;HPM_P2
2023/07/04 00:00:16;;;;;;;22.10;12.70;;;;;;;;;;108056;1255;25487;-80
2023/07/04 00:03:02;;;;;;;24.60;13.90;;;;;;;;;;108022;1255;22535;-80
2023/07/04 00:05:29;;;;;;;22.10;13.70;;;;;;;;;;108087;1253;22575;-81
2023/07/04 00:07:57;;;;;;;26.60;13.40;;;;;;;;;;108081;1251;22559;-80
2023/07/04 00:10:23;;;;;;;22.10;13.40;;;;;;;;;;108120;1255;22528;-80
2023/07/04 00:12:50;;;;;;;26.80;14.30;;;;;;;;;;108132;1253;22949;-80
2023/07/04 00:15:16;;;;;;;21.40;12.80;;;;;;;;;;108115;1254;22546;-80
2023/07/04 00:17:43;;;;;;;19.40;13.00;;;;;;;;;;108351;1250;22519;-81
2023/07/04 00:20:10;;;;;;;20.00;12.10;;;;;;;;;;108176;1252;25723;-80
2023/07/04 00:22:36;;;;;;;21.40;13.00;;;;;;;;;;108139;1251;22540;-80
2023/07/04 00:25:04;;;;;;;28.20;14.20;;;;;;;;;;108083;1252;22709;-80
2023/07/04 00:27:32;;;;;;;20.60;12.40;;;;;;;;;;108129;1251;22529;-80
2023/07/04 00:29:58;;;;;;;21.10;13.00;;;;;;;;;;108210;1251;22577;-80
2023/07/04 00:32:25;;;;;;;23.30;12.80;;;;;;;;;;108207;1254;22521;-80
2023/07/04 00:34:52;;;;;;;22.70;13.00;;;;;;;;;;108230;1254;22535;-80
2023/07/04 00:37:21;;;;;;;22.10;12.50;;;;;;;;;;108205;1250;22514;-80
2023/07/04 00:39:49;;;;;;;21.10;12.20;;;;;;;;;;108164;1251;23121;-80
2023/07/04 00:42:15;;;;;;;22.40;12.70;;;;;;;;;;108153;1252;22780;-80
2023/07/04 00:44:47;;;;;;;20.30;13.00;;;;;;;;;;108198;1253;24242;-80
2023/07/04 00:47:21;;;;;;;21.10;13.40;;;;;;;;;;108166;1251;22782;-81
2023/07/04 00:49:49;;;;;;;23.20;12.70;;;;;;;;;;108171;1252;22528;-80
2023/07/04 00:52:23;;;;;;;23.40;14.20;;;;;;;;;;108682;1251;22944;-80
2023/07/04 00:54:57;;;;;;;22.80;12.90;;;;;;;;;;108215;1251;24025;-80
2023/07/04 00:57:25;;;;;;;25.40;13.20;;;;;;;;;;108182;1254;22521;-80
2023/07/04 00:59:57;;;;;;;19.60;12.10;;;;;;;;;;108306;1251;26611;-80
2023/07/04 01:02:26;;;;;;;23.40;14.40;;;;;;;;;;108170;1251;22671;-80
2023/07/04 01:04:52;;;;;;;19.70;12.80;;;;;;;;;;108309;1254;22661;-80
2023/07/04 01:07:32;;;;;;;21.90;13.10;;;;;;;;;;108024;1256;26088;-80
2023/07/04 01:10:12;;;;;;;23.50;13.60;;;;;;;;;;108208;1253;25515;-80
2023/07/04 01:12:39;;;;;;;20.80;13.20;;;;;;;;;;108185;1251;22523;-80
2023/07/04 01:15:06;;;;;;;20.20;12.40;;;;;;;;;;108122;1255;22564;-80
2023/07/04 01:17:32;;;;;;;24.10;12.60;;;;;;;;;;108176;1255;22537;-80
2023/07/04 01:19:59;;;;;;;21.80;12.90;;;;;;;;;;108153;1255;22615;-80
2023/07/04 01:22:42;;;;;;;22.30;13.20;;;;;;;;;;108102;1251;22529;-80
2023/07/04 01:25:14;;;;;;;23.80;13.10;;;;;;;;;;108113;1251;23287;-80
2023/07/04 01:27:43;;;;;;;20.70;13.30;;;;;;;;;;108145;1251;22764;-80
2023/07/04 01:30:10;;;;;;;22.90;12.80;;;;;;;;;;107957;1256;24192;-80
2023/07/04 01:32:36;;;;;;;18.80;12.80;;;;;;;;;;107977;1251;22649;-80
2023/07/04 01:35:03;;;;;;;22.60;12.00;;;;;;;;;;108101;1251;22650;-80
2023/07/04 01:37:29;;;;;;;21.30;13.00;;;;;;;;;;108145;1255;22886;-80
2023/07/04 01:39:57;;;;;;;20.60;12.60;;;;;;;;;;108127;1255;25330;-80
2023/07/04 01:42:23;;;;;;;18.00;11.20;;;;;;;;;;108134;1253;22670;-80
2023/07/04 01:44:51;;;;;;;19.70;11.90;;;;;;;;;;108084;1251;24235;-79
2023/07/04 01:47:18;;;;;;;22.60;11.90;;;;;;;;;;108127;1251;22642;-80
2023/07/04 01:49:44;;;;;;;20.30;12.20;;;;;;;;;;108131;1251;22650;-80
2023/07/04 01:52:11;;;;;;;19.80;12.30;;;;;;;;;;108168;1253;23045;-80
2023/07/04 01:54:37;;;;;;;22.60;12.90;;;;;;;;;;108009;1251;25459;-80
2023/07/04 01:57:05;;;;;;;20.80;13.40;;;;;;;;;;108104;1256;25225;-80
2023/07/04 01:59:32;;;;;;;22.40;13.20;;;;;;;;;;108139;1251;25407;-80
2023/07/04 02:01:58;;;;;;;21.20;12.60;;;;;;;;;;108062;1251;25390;-80
2023/07/04 02:04:24;;;;;;;17.20;11.50;;;;;;;;;;108149;1254;24182;-80
2023/07/04 02:06:51;;;;;;;19.80;12.30;;;;;;;;;;108120;1256;24202;-80
2023/07/04 02:09:17;;;;;;;24.70;13.50;;;;;;;;;;108184;1254;22585;-80
2023/07/04 02:11:45;;;;;;;23.20;12.60;;;;;;;;;;108140;1251;24206;-80
2023/07/04 02:14:12;;;;;;;22.20;12.50;;;;;;;;;;108241;1251;24252;-79
2023/07/04 02:16:38;;;;;;;19.70;12.80;;;;;;;;;;108166;1252;22580;-80
2023/07/04 02:19:05;;;;;;;22.00;12.00;;;;;;;;;;108246;1251;25375;-80
2023/07/04 02:21:31;;;;;;;22.30;13.70;;;;;;;;;;108165;1252;22521;-80
2023/07/04 02:23:57;;;;;;;25.50;14.10;;;;;;;;;;108145;1251;25475;-80
2023/07/04 02:26:24;;;;;;;27.70;14.60;;;;;;;;;;108195;1255;22536;-80
2023/07/04 02:28:50;;;;;;;23.50;13.40;;;;;;;;;;108167;1253;23326;-80
2023/07/04 02:31:16;;;;;;;19.50;13.20;;;;;;;;;;108181;1251;22633;-80
2023/07/04 02:33:43;;;;;;;21.50;11.70;;;;;;;;;;108087;1255;23182;-80
2023/07/04 02:36:11;;;;;;;22.00;12.80;;;;;;;;;;107980;1251;22540;-80
2023/07/04 02:38:39;;;;;;;20.30;12.10;;;;;;;;;;108168;1251;23744;-80
2023/07/04 02:41:05;;;;;;;21.70;13.40;;;;;;;;;;108077;1252;25501;-80
2023/07/04 02:43:33;;;;;;;25.70;12.70;;;;;;;;;;108102;1251;23021;-80
2023/07/04 02:46:00;;;;;;;21.80;12.80;;;;;;;;;;108115;1251;24372;-80
2023/07/04 02:48:26;;;;;;;24.60;13.90;;;;;;;;;;108130;1251;22543;-80
2023/07/04 02:50:53;;;;;;;19.00;12.00;;;;;;;;;;108173;1252;24223;-80
2023/07/04 02:53:22;;;;;;;21.90;13.20;;;;;;;;;;108169;1251;22798;-80
2023/07/04 02:55:48;;;;;;;22.40;13.90;;;;;;;;;;108201;1251;22547;-80
2023/07/04 02:58:15;;;;;;;21.20;13.90;;;;;;;;;;108231;1254;23366;-79
2023/07/04 03:00:41;;;;;;;18.50;12.60;;;;;;;;;;108145;1251;22598;-80
2023/07/04 03:03:08;;;;;;;24.80;13.20;;;;;;;;;;108204;1251;22954;-80
2023/07/04 03:05:35;;;;;;;19.70;13.00;;;;;;;;;;108208;1254;22508;-80
2023/07/04 03:08:01;;;;;;;26.10;14.80;;;;;;;;;;108021;1256;22730;-80
2023/07/04 03:10:28;;;;;;;21.40;13.30;;;;;;;;;;108115;1251;22615;-80
2023/07/04 03:12:54;;;;;;;22.90;13.00;;;;;;;;;;108174;1250;22547;-80
2023/07/04 03:15:20;;;;;;;21.80;13.50;;;;;;;;;;108147;1251;22571;-80
2023/07/04 03:17:47;;;;;;;20.20;12.80;;;;;;;;;;108121;1255;22582;-80
2023/07/04 03:20:13;;;;;;;20.20;13.30;;;;;;;;;;108155;1251;22809;-80
2023/07/04 03:22:40;;;;;;;20.90;13.00;;;;;;;;;;108062;1256;25506;-80
2023/07/04 03:25:07;;;;;;;25.70;11.90;;;;;;;;;;108073;1251;25237;-80
2023/07/04 03:27:34;;;;;;;23.20;12.50;;;;;;;;;;108151;1251;25352;-80
2023/07/04 03:30:01;;;;;;;18.60;11.90;;;;;;;;;;108201;1254;22525;-80
2023/07/04 03:32:27;;;;;;;20.20;12.60;;;;;;;;;;108132;1251;22747;-80
2023/07/04 03:34:55;;;;;;;22.60;13.10;;;;;;;;;;107991;1251;22558;-80
2023/07/04 03:37:21;;;;;;;22.50;11.30;;;;;;;;;;108162;1250;25492;-80
2023/07/04 03:39:48;;;;;;;21.60;12.30;;;;;;;;;;108127;1251;24221;-80
2023/07/04 03:42:14;;;;;;;21.20;13.30;;;;;;;;;;108162;1249;23226;-80
2023/07/04 03:44:40;;;;;;;19.90;12.90;;;;;;;;;;108046;1251;24430;-80
2023/07/04 03:47:07;;;;;;;25.40;15.00;;;;;;;;;;108167;1254;22574;-80
2023/07/04 03:49:33;;;;;;;25.90;14.20;;;;;;;;;;108132;1251;24174;-80
2023/07/04 03:51:59;;;;;;;27.10;12.80;;;;;;;;;;108092;1251;23360;-80
2023/07/04 03:54:26;;;;;;;24.60;14.20;;;;;;;;;;108158;1251;24343;-80
2023/07/04 03:56:52;;;;;;;19.00;12.20;;;;;;;;;;108158;1251;23982;-80
2023/07/04 03:59:19;;;;;;;21.70;12.50;;;;;;;;;;108133;1251;22612;-79
2023/07/04 04:01:45;;;;;;;20.80;12.50;;;;;;;;;;108281;1250;24227;-79
2023/07/04 04:04:11;;;;;;;24.70;12.30;;;;;;;;;;108171;1251;25290;-80
2023/07/04 04:06:38;;;;;;;23.30;13.70;;;;;;;;;;108165;1251;23082;-80
2023/07/04 04:09:04;;;;;;;21.30;13.60;;;;;;;;;;108703;1251;22668;-80
2023/07/04 04:11:31;;;;;;;20.70;12.50;;;;;;;;;;108091;1251;22546;-80
2023/07/04 04:13:58;;;;;;;22.50;13.40;;;;;;;;;;108032;1251;23642;-80
2023/07/04 04:16:24;;;;;;;24.80;12.70;;;;;;;;;;108130;1251;22553;-80
2023/07/04 04:18:51;;;;;;;18.60;12.70;;;;;;;;;;108152;1250;24218;-80
2023/07/04 04:21:17;;;;;;;20.80;12.90;;;;;;;;;;108127;1251;22660;-79
2023/07/04 04:23:43;;;;;;;22.50;13.50;;;;;;;;;;108103;1254;23384;-80
2023/07/04 04:26:12;;;;;;;18.10;12.70;;;;;;;;;;108138;1251;22529;-80
2023/07/04 04:28:38;;;;;;;17.60;12.40;;;;;;;;;;108093;1250;22528;-80
2023/07/04 04:31:05;;;;;;;27.50;13.80;;;;;;;;;;108140;1254;22558;-80
2023/07/04 04:33:32;;;;;;;21.50;11.50;;;;;;;;;;108115;1250;22519;-80
2023/07/04 04:35:59;;;;;;;24.10;13.10;;;;;;;;;;108164;1254;22573;-80
2023/07/04 04:38:25;;;;;;;24.50;13.20;;;;;;;;;;108103;1251;23112;-80
2023/07/04 04:40:52;;;;;;;20.00;12.30;;;;;;;;;;108137;1251;24340;-80
2023/07/04 04:43:18;;;;;;;22.20;14.60;;;;;;;;;;108131;1251;22649;-81
2023/07/04 04:45:45;;;;;;;19.80;12.80;;;;;;;;;;108157;1251;22568;-80
2023/07/04 04:48:28;;;;;;;17.70;12.80;;;;;;;;;;108132;1251;22555;-80
2023/07/04 04:50:58;;;;;;;21.80;13.90;;;;;;;;;;108162;1254;23092;-80
2023/07/04 04:53:25;;;;;;;22.30;12.80;;;;;;;;;;108007;1251;25375;-80
2023/07/04 04:55:51;;;;;;;20.20;12.70;;;;;;;;;;108114;1251;22537;-80
2023/07/04 04:58:20;;;;;;;21.90;12.70;;;;;;;;;;108162;1251;23242;-80
2023/07/04 05:00:47;;;;;;;22.10;12.80;;;;;;;;;;108113;1251;25482;-80
2023/07/04 05:03:13;;;;;;;20.90;13.80;;;;;;;;;;108297;1251;24331;-80
2023/07/04 05:05:39;;;;;;;22.60;13.30;;;;;;;;;;108113;1251;22583;-80
2023/07/04 05:08:06;;;;;;;22.40;12.90;;;;;;;;;;108123;1250;23067;-80
2023/07/04 05:10:32;;;;;;;20.30;12.30;;;;;;;;;;108161;1251;24248;-80
2023/07/04 05:12:59;;;;;;;22.70;13.10;;;;;;;;;;108314;1250;23144;-80
2023/07/04 05:15:25;;;;;;;22.90;13.60;;;;;;;;;;108100;1251;22618;-80
2023/07/04 05:17:52;;;;;;;23.40;13.50;;;;;;;;;;108171;1251;22536;-80
2023/07/04 05:20:23;;;;;;;21.70;14.40;;;;;;;;;;108164;1251;22553;-80
2023/07/04 05:22:50;;;;;;;21.80;14.10;;;;;;;;;;108348;1251;22946;-80
2023/07/04 05:25:16;;;;;;;26.00;13.90;;;;;;;;;;108270;1251;22988;-80
2023/07/04 05:27:43;;;;;;;22.30;13.00;;;;;;;;;;108174;1251;22522;-80
2023/07/04 05:30:09;;;;;;;25.40;14.90;;;;;;;;;;108200;1254;22990;-80
2023/07/04 05:32:35;;;;;;;28.50;14.00;;;;;;;;;;108408;1251;22614;-80
2023/07/04 05:35:02;;;;;;;30.00;15.80;;;;;;;;;;108525;1251;22622;-80
2023/07/04 05:37:29;;;;;;;25.50;14.90;;;;;;;;;;108434;1251;23230;-80
2023/07/04 05:39:57;;;;;;;22.30;13.70;;;;;;;;;;110541;1251;22948;-80
2023/07/04 05:42:25;;;;;;;19.50;13.00;;;;;;;;;;110547;1251;22198;-80
2023/07/04 05:44:51;;;;;;;25.20;15.20;;;;;;;;;;110586;1251;23489;-80
2023/07/04 05:47:18;;;;;;;22.10;12.70;;;;;;;;;;109215;1251;24248;-80
2023/07/04 05:49:45;;;;;;;23.30;13.30;;;;;;;;;;108056;1251;22593;-80
2023/07/04 05:52:11;;;;;;;17.50;12.70;;;;;;;;;;108244;1251;22742;-80
2023/07/04 05:54:37;;;;;;;18.40;12.60;;;;;;;;;;108239;1251;23591;-80
2023/07/04 05:57:04;;;;;;;22.60;13.40;;;;;;;;;;108223;1251;24354;-80
2023/07/04 05:59:30;;;;;;;21.50;14.70;;;;;;;;;;108303;1251;26270;-80
2023/07/04 06:01:58;;;;;;;23.40;13.40;;;;;;;;;;108284;1254;23081;-81
2023/07/04 06:04:24;;;;;;;20.60;13.50;;;;;;;;;;108330;1251;23227;-80
2023/07/04 06:06:52;;;;;;;19.40;12.90;;;;;;;;;;108224;1254;22452;-80
2023/07/04 06:09:18;;;;;;;20.40;13.10;;;;;;;;;;108411;1251;22586;-80
2023/07/04 06:11:46;;;;;;;28.00;14.00;;;;;;;;;;108687;1251;25286;-80
2023/07/04 06:14:14;;;;;;;23.40;14.00;;;;;;;;;;108469;1251;23703;-80
2023/07/04 06:16:40;;;;;;;21.50;13.20;;;;;;;;;;108312;1251;22617;-80
2023/07/04 06:19:07;;;;;;;23.70;13.00;;;;;;;;;;108431;1251;22995;-80
2023/07/04 06:21:33;;;;;;;19.60;13.00;;;;;;;;;;108613;1251;22531;-80
2023/07/04 06:23:59;;;;;;;21.80;13.10;;;;;;;;;;108462;1251;25349;-80
2023/07/04 06:26:30;;;;;;;23.50;13.40;;;;;;;;;;108536;1250;24225;-80
2023/07/04 06:28:56;;;;;;;17.80;12.40;;;;;;;;;;108484;1251;22693;-80
2023/07/04 06:31:22;;;;;;;19.70;13.20;;;;;;;;;;108637;1251;22743;-80
2023/07/04 06:33:49;;;;;;;27.30;14.70;;;;;;;;;;108530;1250;26169;-80
2023/07/04 06:36:15;;;;;;;22.30;13.30;;;;;;;;;;108463;1251;26406;-80
2023/07/04 06:38:41;;;;;;;20.20;12.10;;;;;;;;;;108418;1251;22545;-80
2023/07/04 06:41:10;;;;;;;22.10;13.30;;;;;;;;;;108570;1251;22573;-80
2023/07/04 06:43:36;;;;;;;19.90;13.00;;;;;;;;;;108517;1254;22512;-80
2023/07/04 06:46:03;;;;;;;17.20;12.30;;;;;;;;;;108432;1251;22531;-80
2023/07/04 06:48:29;;;;;;;17.10;13.00;;;;;;;;;;108448;1251;22552;-80
2023/07/04 06:51:03;;;;;;;21.30;12.30;;;;;;;;;;108513;1256;22632;-80
2023/07/04 06:53:29;;;;;;;17.30;12.60;;;;;;;;;;108413;1252;23186;-80
2023/07/04 06:56:03;;;;;;;20.20;12.90;;;;;;;;;;108424;1251;22595;-80
2023/07/04 06:58:29;;;;;;;20.50;12.60;;;;;;;;;;108226;1251;23157;-80
2023/07/04 07:00:56;;;;;;;19.90;11.80;;;;;;;;;;108596;1251;22615;-80
2023/07/04 07:03:22;;;;;;;19.10;12.80;;;;;;;;;;108549;1251;22615;-80
2023/07/04 07:05:48;;;;;;;18.50;12.20;;;;;;;;;;108305;1251;22614;-80
2023/07/04 07:08:16;;;;;;;20.80;13.30;;;;;;;;;;108146;1251;141035;-81
2023/07/04 07:10:55;;;;;;;19.80;12.20;;;;;;;;;;108642;1251;24250;-81
2023/07/04 07:13:22;;;;;;;14.80;9.90;;;;;;;;;;108602;1251;22594;-80
2023/07/04 07:15:48;;;;;;;18.50;10.70;;;;;;;;;;108217;1251;22531;-81
2023/07/04 07:18:15;;;;;;;15.30;9.50;;;;;;;;;;107978;1251;25419;-80
2023/07/04 07:20:41;;;;;;;16.10;8.90;;;;;;;;;;108389;1251;22532;-80
2023/07/04 07:23:09;;;;;;;13.60;8.60;;;;;;;;;;108437;1251;23220;-80
2023/07/04 07:25:36;;;;;;;18.70;10.40;;;;;;;;;;108537;1251;22646;-81
2023/07/04 07:28:02;;;;;;;16.90;9.30;;;;;;;;;;108380;1251;24225;-81
2023/07/04 07:30:29;;;;;;;14.70;8.30;;;;;;;;;;108527;1251;22574;-81
2023/07/04 07:32:55;;;;;;;13.90;8.30;;;;;;;;;;108618;1250;23238;-81
2023/07/04 07:35:22;;;;;;;20.10;9.90;;;;;;;;;;108371;1251;22527;-80
2023/07/04 07:37:48;;;;;;;15.10;9.40;;;;;;;;;;108233;1252;25149;-81
2023/07/04 07:40:14;;;;;;;13.20;9.10;;;;;;;;;;108186;1251;22532;-81
2023/07/04 07:42:41;;;;;;;13.00;9.50;;;;;;;;;;108487;1252;23110;-80
2023/07/04 07:45:07;;;;;;;12.10;8.50;;;;;;;;;;108415;1251;22531;-81
2023/07/04 07:47:34;;;;;;;15.60;9.50;;;;;;;;;;108336;1251;25333;-81
2023/07/04 07:50:00;;;;;;;12.60;9.20;;;;;;;;;;108366;1251;22603;-81
2023/07/04 07:52:27;;;;;;;17.10;9.40;;;;;;;;;;108377;1251;25337;-81
2023/07/04 07:54:53;;;;;;;18.60;9.90;;;;;;;;;;108466;1251;22534;-81
2023/07/04 07:57:20;;;;;;;14.40;9.60;;;;;;;;;;108242;1251;25044;-81
2023/07/04 07:59:47;;;;;;;16.50;9.50;;;;;;;;;;108295;1251;23271;-81
2023/07/04 08:02:13;;;;;;;15.90;9.00;;;;;;;;;;108356;1251;23935;-81
2023/07/04 08:04:40;;;;;;;12.30;7.70;;;;;;;;;;108334;1251;22629;-81
2023/07/04 08:07:07;;;;;;;16.60;8.40;;;;;;;;;;108216;1251;24288;-81
2023/07/04 08:09:33;;;;;;;16.50;8.20;;;;;;;;;;108353;1251;22553;-81
2023/07/04 08:12:00;;;;;;;14.40;9.00;;;;;;;;;;108439;1251;22665;-81
2023/07/04 08:14:26;;;;;;;16.40;7.90;;;;;;;;;;108365;1252;22529;-80
2023/07/04 08:16:53;;;;;;;18.70;10.50;;;;;;;;;;108252;1249;22531;-81
2023/07/04 08:19:20;;;;;;;13.90;8.30;;;;;;;;;;108251;1250;25938;-81
2023/07/04 08:21:47;;;;;;;13.30;9.40;;;;;;;;;;108349;1251;22544;-81
2023/07/04 08:24:13;;;;;;;16.40;9.20;;;;;;;;;;108229;1251;24222;-80
2023/07/04 08:26:40;;;;;;;12.40;8.60;;;;;;;;;;108275;1251;22539;-81
2023/07/04 08:29:07;;;;;;;13.80;8.10;;;;;;;;;;108280;1251;22628;-81
2023/07/04 08:31:33;;;;;;;12.30;8.30;;;;;;;;;;108384;1250;24991;-80
2023/07/04 08:34:00;;;;;;;12.40;8.40;;;;;;;;;;108416;1251;25295;-81
2023/07/04 08:36:26;;;;;;;13.70;8.20;;;;;;;;;;108295;1251;23278;-81
2023/07/04 08:38:53;;;;;;;15.10;8.70;;;;;;;;;;108263;1251;24387;-81
2023/07/04 08:41:25;;;;;;;13.60;8.50;;;;;;;;;;110610;1251;22385;-81
2023/07/04 08:44:00;;;;;;;15.30;9.00;;;;;;;;;;108306;1253;22517;-81
2023/07/04 08:46:28;;;;;;;13.00;7.90;;;;;;;;;;108391;1254;22563;-81
2023/07/04 08:48:54;;;;;;;12.70;7.80;;;;;;;;;;108293;1251;23281;-81
2023/07/04 08:51:23;;;;;;;10.50;6.70;;;;;;;;;;108404;1251;22606;-81
2023/07/04 08:53:51;;;;;;;15.80;7.60;;;;;;;;;;108431;1251;22541;-81
2023/07/04 08:56:38;;;;;;;12.20;8.10;;;;;;;;;;108192;1251;22609;-81
2023/07/04 08:59:08;;;;;;;12.80;7.00;;;;;;;;;;108358;1251;22821;-81
2023/07/04 09:01:53;;;;;;;13.10;8.10;;;;;;;;;;108538;1251;22629;-81
2023/07/04 09:04:33;;;;;;;12.50;7.70;;;;;;;;;;108414;1251;22606;-81
2023/07/04 09:07:01;;;;;;;13.00;8.00;;;;;;;;;;108146;1251;22637;-81
2023/07/04 09:09:35;;;;;;;11.50;7.10;;;;;;;;;;108448;1251;22602;-81
2023/07/04 09:12:02;;;;;;;9.60;6.20;;;;;;;;;;108163;1256;22555;-81
2023/07/04 09:14:32;;;;;;;13.60;7.20;;;;;;;;;;108168;1251;25484;-81
2023/07/04 09:16:59;;;;;;;15.20;7.20;;;;;;;;;;108223;1251;25510;-81
2023/07/04 09:19:31;;;;;;;13.00;7.40;;;;;;;;;;108370;1251;22522;-81
2023/07/04 09:21:57;;;;;;;12.70;6.70;;;;;;;;;;108411;1251;22619;-81
2023/07/04 09:24:24;;;;;;;11.90;6.70;;;;;;;;;;108337;1251;22532;-81
2023/07/04 09:26:54;;;;;;;56.60;37.50;;;;;;;;;;108356;1251;23285;-81
2023/07/04 09:29:22;;;;;;;13.10;6.40;;;;;;;;;;108198;1251;22543;-81
2023/07/04 09:31:53;;;;;;;10.80;5.60;;;;;;;;;;108524;1251;22662;-81
2023/07/04 09:34:21;;;;;;;9.30;4.90;;;;;;;;;;108397;1251;22549;-81
2023/07/04 09:36:47;;;;;;;10.70;5.50;;;;;;;;;;108267;1252;22533;-81
2023/07/04 09:39:14;;;;;;;10.00;6.10;;;;;;;;;;108328;1252;22552;-81
2023/07/04 09:41:40;;;;;;;9.80;5.80;;;;;;;;;;108477;1251;22567;-81
2023/07/04 09:44:14;;;;;;;8.30;5.30;;;;;;;;;;108259;1251;22673;-81
2023/07/04 09:46:45;;;;;;;12.10;6.50;;;;;;;;;;109001;1251;26113;-81
2023/07/04 09:49:22;;;;;;;8.90;5.40;;;;;;;;;;108446;1251;23039;-81
2023/07/04 09:52:02;;;;;;;9.70;5.40;;;;;;;;;;108451;1251;22573;-81
2023/07/04 09:54:29;;;;;;;10.40;6.80;;;;;;;;;;108447;1251;22609;-81
2023/07/04 09:56:55;;;;;;;7.20;4.90;;;;;;;;;;108314;1251;22564;-81
2023/07/04 09:59:23;;;;;;;8.90;5.10;;;;;;;;;;108371;1251;25141;-81
2023/07/04 10:01:50;;;;;;;9.80;4.70;;;;;;;;;;108389;1250;22652;-81
2023/07/04 10:04:25;;;;;;;9.10;4.90;;;;;;;;;;108377;1254;23335;-81
2023/07/04 10:06:52;;;;;;;8.40;5.30;;;;;;;;;;110526;1251;22573;-82
2023/07/04 10:09:20;;;;;;;6.30;4.50;;;;;;;;;;110605;1251;22361;-82
2023/07/04 10:11:50;;;;;;;8.10;4.50;;;;;;;;;;110583;1251;22193;-82
2023/07/04 10:14:18;;;;;;;11.00;5.80;;;;;;;;;;110449;1253;22339;-82
2023/07/04 10:16:46;;;;;;;7.00;4.00;;;;;;;;;;110539;1251;22331;-82
2023/07/04 10:19:12;;;;;;;;;;;;;;;;;;108872;1251;22535;-82
2023/07/04 10:21:42;;;;;;;8.20;5.70;;;;;;;;;;108795;1251;23151;-82
2023/07/04 10:24:16;;;;;;;6.40;4.00;;;;;;;;;;108636;1252;23301;-82
2023/07/04 10:26:42;;;;;;;6.20;4.20;;;;;;;;;;108304;1252;25516;-81
2023/07/04 10:29:09;;;;;;;7.30;5.30;;;;;;;;;;108547;1250;22568;-82
2023/07/04 10:31:36;;;;;;;6.10;5.10;;;;;;;;;;108566;1251;22614;-82
2023/07/04 10:34:03;;;;;;;7.40;5.60;;;;;;;;;;108633;1251;23762;-82
2023/07/04 10:36:31;;;;;;;;;;;;;;;;;;108599;1251;22630;-82
2023/07/04 10:38:59;;;;;;;7.60;5.80;;;;;;;;;;108260;1253;26412;-81
2023/07/04 10:41:36;;;;;;;15.30;6.60;;;;;;;;;;108665;1249;22599;-82
2023/07/04 10:44:02;;;;;;;;;;;;;;;;;;108434;1251;22530;-82
2023/07/04 10:46:31;;;;;;;8.90;7.90;;;;;;;;;;108348;1251;23688;-82
2023/07/04 10:49:01;;;;;;;7.80;6.60;;;;;;;;;;108359;1251;22521;-82
2023/07/04 10:51:30;;;;;;;10.00;6.90;;;;;;;;;;108607;1250;23032;-82
2023/07/04 10:53:56;;;;;;;7.10;6.40;;;;;;;;;;108438;1251;24238;-82
2023/07/04 10:56:24;;;;;;;7.00;6.20;;;;;;;;;;108385;1252;22613;-82
2023/07/04 10:58:52;;;;;;;6.60;5.50;;;;;;;;;;108455;1251;22539;-82
2023/07/04 11:01:20;;;;;;;6.30;5.10;;;;;;;;;;108943;1251;23309;-82
2023/07/04 11:03:54;;;;;;;6.30;5.70;;;;;;;;;;108706;1251;24192;-82
2023/07/04 11:06:29;;;;;;;6.40;4.90;;;;;;;;;;108400;1251;22591;-82
2023/07/04 11:08:56;;;;;;;6.80;4.90;;;;;;;;;;108413;1252;25360;-82
2023/07/04 11:11:29;;;;;;;6.60;4.90;;;;;;;;;;108658;1251;23772;-82
2023/07/04 11:14:01;;;;;;;5.30;4.50;;;;;;;;;;108389;1251;22616;-82
2023/07/04 11:16:29;;;;;;;6.60;4.80;;;;;;;;;;108322;1253;23048;-82
2023/07/04 11:18:58;;;;;;;5.30;3.90;;;;;;;;;;108562;1251;25426;-82
2023/07/04 11:21:25;;;;;;;8.50;3.50;;;;;;;;;;108464;1256;22543;-82
2023/07/04 11:23:53;;;;;;;4.70;3.60;;;;;;;;;;108582;1251;22647;-82
2023/07/04 11:26:21;;;;;;;5.20;3.70;;;;;;;;;;110067;1253;23259;-82
2023/07/04 11:28:48;;;;;;;4.60;3.50;;;;;;;;;;108318;1251;22559;-82
2023/07/04 11:31:27;;;;;;;3.40;2.80;;;;;;;;;;108604;1251;23108;-82
2023/07/04 11:33:53;;;;;;;3.90;2.60;;;;;;;;;;110526;1251;23139;-82
2023/07/04 11:36:22;;;;;;;5.10;3.00;;;;;;;;;;110553;1251;22309;-82
2023/07/04 11:38:51;;;;;;;4.50;3.00;;;;;;;;;;110502;1251;23089;-82
2023/07/04 11:41:17;;;;;;;4.00;3.00;;;;;;;;;;110542;1251;22406;-82
2023/07/04 11:43:45;;;;;;;3.30;2.30;;;;;;;;;;110460;1251;22524;-82
2023/07/04 11:46:24;;;;;;;2.60;1.90;;;;;;;;;;110636;1250;22468;-83
2023/07/04 11:48:53;;;;;;;2.80;1.70;;;;;;;;;;110610;1251;22406;-82
2023/07/04 11:51:20;;;;;;;2.40;1.60;;;;;;;;;;110654;1251;22226;-82
2023/07/04 11:53:56;;;;;;;4.80;2.50;;;;;;;;;;110641;1251;22449;-82
2023/07/04 11:56:23;;;;;;;4.90;3.10;;;;;;;;;;110581;1251;22438;-82
2023/07/04 11:59:08;;;;;;;4.80;3.10;;;;;;;;;;110666;1251;22470;-82
2023/07/04 12:01:57;;;;;;;4.80;3.60;;;;;;;;;;110591;1251;22439;-82
2023/07/04 12:04:24;;;;;;;5.30;3.10;;;;;;;;;;110591;1251;22257;-82
2023/07/04 12:06:52;;;;;;;4.80;3.30;;;;;;;;;;110600;1251;22456;-82
2023/07/04 12:09:23;;;;;;;4.70;3.40;;;;;;;;;;110592;1251;22200;-81
2023/07/04 12:11:50;;;;;;;5.90;3.10;;;;;;;;;;110576;1251;22408;-81
2023/07/04 12:14:17;;;;;;;5.60;3.20;;;;;;;;;;110584;1251;22372;-81
2023/07/04 12:16:46;;;;;;;5.30;2.40;;;;;;;;;;110563;1252;22385;-81
2023/07/04 12:19:16;;;;;;;4.50;3.00;;;;;;;;;;110610;1251;22444;-82
2023/07/04 12:21:45;;;;;;;3.60;2.70;;;;;;;;;;110653;1251;22892;-82
2023/07/04 12:24:11;;;;;;;3.10;2.40;;;;;;;;;;110599;1251;22374;-82
2023/07/04 12:26:37;;;;;;;5.90;3.30;;;;;;;;;;110556;1251;22943;-82
2023/07/04 12:29:04;;;;;;;4.00;2.50;;;;;;;;;;110511;1251;22165;-81
2023/07/04 12:31:30;;;;;;;5.00;2.90;;;;;;;;;;110598;1251;23149;-82
2023/07/04 12:33:57;;;;;;;4.50;2.80;;;;;;;;;;110618;1250;22427;-81
2023/07/04 12:36:31;;;;;;;5.30;2.00;;;;;;;;;;110588;1251;22868;-82
2023/07/04 12:38:58;;;;;;;2.80;1.50;;;;;;;;;;110630;1251;22331;-82
2023/07/04 12:41:27;;;;;;;2.90;2.20;;;;;;;;;;110468;1251;23047;-82
2023/07/04 12:44:03;;;;;;;3.30;2.20;;;;;;;;;;110522;1265;22822;-82
2023/07/04 12:46:30;;;;;;;4.40;1.70;;;;;;;;;;108732;1251;22660;-81
2023/07/04 12:48:57;;;;;;;2.80;1.60;;;;;;;;;;108387;1251;24194;-81
2023/07/04 12:51:25;;;;;;;3.20;1.70;;;;;;;;;;108555;1251;22574;-82
2023/07/04 12:53:52;;;;;;;3.60;1.50;;;;;;;;;;108580;1251;22574;-82
2023/07/04 12:56:18;;;;;;;4.20;1.60;;;;;;;;;;108496;1251;23191;-81
2023/07/04 12:58:45;;;;;;;4.50;2.10;;;;;;;;;;108334;1251;25269;-81
2023/07/04 13:01:14;;;;;;;3.20;1.60;;;;;;;;;;108554;1251;22726;-81
2023/07/04 13:03:43;;;;;;;2.40;1.50;;;;;;;;;;110564;1251;23054;-81
2023/07/04 13:06:12;;;;;;;2.90;1.50;;;;;;;;;;108629;1251;22536;-81
2023/07/04 13:08:48;;;;;;;2.50;1.40;;;;;;;;;;108273;1252;22621;-81
2023/07/04 13:11:15;;;;;;;2.40;1.60;;;;;;;;;;108519;1251;22692;-82
2023/07/04 13:13:42;;;;;;;4.50;2.00;;;;;;;;;;108473;1251;22519;-81
2023/07/04 13:16:09;;;;;;;3.10;1.70;;;;;;;;;;108350;1255;23277;-81
2023/07/04 13:18:38;;;;;;;4.90;1.80;;;;;;;;;;108341;1251;23110;-81
2023/07/04 13:21:04;;;;;;;4.10;1.70;;;;;;;;;;108310;1251;22834;-81
2023/07/04 13:23:34;;;;;;;2.60;1.70;;;;;;;;;;108455;1251;25087;-81
2023/07/04 13:26:01;;;;;;;4.70;1.80;;;;;;;;;;108447;1252;22816;-81
2023/07/04 13:28:28;;;;;;;3.40;1.30;;;;;;;;;;108731;1249;24212;-81
2023/07/04 13:31:15;;;;;;;3.90;1.40;;;;;;;;;;108667;1255;22563;-82
2023/07/04 13:33:41;;;;;;;6.20;1.60;;;;;;;;;;108828;1251;23241;-81
2023/07/04 13:36:09;;;;;;;2.50;1.40;;;;;;;;;;108528;1251;22650;-81
2023/07/04 13:38:35;;;;;;;;;;;;;;;;;;108590;1251;22531;-81
2023/07/04 13:41:03;;;;;;;2.50;1.50;;;;;;;;;;109622;1251;22334;-82
2023/07/04 13:43:30;;;;;;;3.60;1.70;;;;;;;;;;109437;1254;24214;-82
2023/07/04 13:45:56;;;;;;;4.70;1.80;;;;;;;;;;108763;1251;22539;-81
2023/07/04 13:48:24;;;;;;;4.90;1.60;;;;;;;;;;108648;1251;22666;-82
2023/07/04 13:50:50;;;;;;;4.00;1.50;;;;;;;;;;108759;1251;22566;-82
2023/07/04 13:53:17;;;;;;;3.40;1.80;;;;;;;;;;108831;1250;22520;-82
2023/07/04 13:55:43;;;;;;;3.10;1.60;;;;;;;;;;108721;1253;22640;-82
2023/07/04 13:58:10;;;;;;;5.90;2.20;;;;;;;;;;110060;1252;22570;-82
2023/07/04 14:00:36;;;;;;;3.30;1.90;;;;;;;;;;110641;1251;22403;-82
2023/07/04 14:03:02;;;;;;;3.20;2.10;;;;;;;;;;110640;1250;22446;-82
2023/07/04 14:05:29;;;;;;;12.30;9.20;;;;;;;;;;110616;1253;22437;-82
2023/07/04 14:07:55;;;;;;;4.20;2.90;;;;;;;;;;108999;1252;26518;-81
2023/07/04 14:10:22;;;;;;;3.90;1.80;;;;;;;;;;108644;1253;22586;-81
2023/07/04 14:12:48;;;;;;;3.20;2.10;;;;;;;;;;108541;1252;25449;-81
2023/07/04 14:15:15;;;;;;;6.90;2.40;;;;;;;;;;108828;1253;25276;-80
2023/07/04 14:17:41;;;;;;;3.90;2.20;;;;;;;;;;108615;1251;22669;-81
2023/07/04 14:20:07;;;;;;;4.30;2.10;;;;;;;;;;109638;1251;22434;-81